Newfield, Pennsylvania
Current Conditions -  °F | °C
As of 8:35 AM on Friday 24 Oct 2014 (Local Time) from KN38 Reporting Station
Overcast Overcast  
Wind Chill: 39°   Ceiling: 3000
Heat Index: 45°   Visibility: 10mi
Dew Point: 37°   Wind: 12mph
Humidity: 76%   Direction: 290°WNW
Pressure: 29.99"   Gusts: NA
Location:  41.8283°N, 77.7331°W
Report Text: KN38 241235Z AUTO 29010KT 10SM OVC030 07/03 A2999 RMK AO2
Loading
Personal Weather Stations






























Interactive Weather Map
Tropical Storm Tracking
New forecast layout! Learn more

10-Day Weather Forecast

Advertisements
Track Severe Weather on mobile